Lexington, Massachusetts
Current Conditions -  °F | °C
As of 4:56 AM on Monday 20 Oct 2014 (Local Time) from KBED Reporting Station
Clear Clear  
Wind Chill: 29°   Ceiling: Unl
Heat Index: 34°   Visibility: 10mi
Dew Point: 26°   Wind: 6mph
Humidity: 73%   Direction: 260°W
Pressure: 29.99"   Gusts: NA
Location:  42.45°N, 71.22°W
Report Text: KBED 200856Z AUTO 26005KT 10SM CLR 01/M03 A2999 RMK AO2 SLP171 T00111033 51003 TSNO
Loading
Personal Weather Stations






























Interactive Weather Map
Tropical Storm Tracking
New forecast layout! Learn more

10-Day Weather Forecast

Advertisements
Track Severe Weather on mobile